createdAt,value
2019-01-23T00:00:42.253Z,90.50
2019-01-23T00:03:11.959Z,90.49
2019-01-23T00:05:41.524Z,90.45
2019-01-23T00:08:11.250Z,90.42
2019-01-23T00:10:40.837Z,90.45
2019-01-23T00:13:10.445Z,90.45
2019-01-23T00:15:40.036Z,90.46
2019-01-23T00:18:09.768Z,90.42
2019-01-23T00:20:39.355Z,90.41
2019-01-23T00:23:08.942Z,90.36
2019-01-23T00:25:38.520Z,90.33
2019-01-23T00:28:08.120Z,90.36
2019-01-23T00:30:37.787Z,90.51
2019-01-23T00:33:07.393Z,90.58
2019-01-23T00:35:36.980Z,90.62
2019-01-23T00:38:06.931Z,90.65
2019-01-23T00:40:36.520Z,90.57
2019-01-23T00:43:06.366Z,90.48
2019-01-23T00:45:35.956Z,90.57
2019-01-23T00:48:05.992Z,90.59
2019-01-23T00:50:35.574Z,90.60
2019-01-23T00:53:05.358Z,90.64
2019-01-23T00:55:34.944Z,90.62
2019-01-23T00:58:04.818Z,90.66
2019-01-23T01:00:34.469Z,90.68
2019-01-23T01:03:04.331Z,90.74
2019-01-23T01:05:33.985Z,90.78
2019-01-23T01:08:03.735Z,90.76
2019-01-23T01:10:33.785Z,90.86
2019-01-23T01:13:03.408Z,90.85
2019-01-23T01:15:32.160Z,90.87
2019-01-23T01:18:01.837Z,90.89
2019-01-23T01:20:30.583Z,90.91
2019-01-23T01:23:00.184Z,91.01
2019-01-23T01:25:28.934Z,91.14
2019-01-23T01:27:58.537Z,91.20
2019-01-23T01:30:27.292Z,91.24
2019-01-23T01:32:56.101Z,91.33
2019-01-23T01:35:24.867Z,91.31
2019-01-23T01:37:54.450Z,91.33
2019-01-23T01:40:24.041Z,91.37
2019-01-23T01:42:53.657Z,91.34
2019-01-23T01:45:23.287Z,91.33
2019-01-23T01:47:52.931Z,91.34
2019-01-23T01:50:21.772Z,91.35
2019-01-23T01:52:51.414Z,91.31
2019-01-23T01:55:20.262Z,91.25
2019-01-23T01:57:49.377Z,91.25
2019-01-23T02:00:22.336Z,91.32
2019-01-23T02:02:50.904Z,91.37
2019-01-23T02:05:21.257Z,91.31
2019-01-23T02:07:50.177Z,91.32
2019-01-23T02:10:20.841Z,91.33
2019-01-23T02:12:49.872Z,91.38
2019-01-23T02:15:18.947Z,91.42
2019-01-23T02:17:48.497Z,91.44
2019-01-23T02:20:24.246Z,91.54
2019-01-23T02:22:53.142Z,91.59
2019-01-23T02:25:22.748Z,91.54
2019-01-23T02:27:51.969Z,91.51
2019-01-23T02:30:22.854Z,91.41
2019-01-23T02:32:51.602Z,91.41
2019-01-23T02:35:20.529Z,91.40
2019-01-23T02:37:49.251Z,91.30
2019-01-23T02:40:21.102Z,91.21
2019-01-23T02:42:50.796Z,91.16
2019-01-23T02:45:20.670Z,91.05
2019-01-23T02:47:49.447Z,91.02
2019-01-23T02:50:18.277Z,91.03
2019-01-23T02:52:47.829Z,91.04
2019-01-23T02:55:16.685Z,91.04
2019-01-23T02:57:46.282Z,91.00
2019-01-23T03:00:17.106Z,91.00
2019-01-23T03:02:46.517Z,91.08
2019-01-23T03:05:17.428Z,91.05
2019-01-23T03:07:46.431Z,91.00
2019-01-23T03:10:19.588Z,91.01
2019-01-23T03:12:48.552Z,91.05
2019-01-23T03:15:17.960Z,90.91
2019-01-23T03:17:47.790Z,90.85
2019-01-23T03:20:17.976Z,90.90
2019-01-23T03:22:47.706Z,90.91
2019-01-23T03:25:16.727Z,90.90
2019-01-23T03:27:45.499Z,90.98
2019-01-23T03:30:16.903Z,91.01
2019-01-23T03:32:45.868Z,91.08
2019-01-23T03:35:14.622Z,91.15
2019-01-23T03:37:43.489Z,91.10
2019-01-23T03:40:18.429Z,91.02
2019-01-23T03:42:47.244Z,90.96
2019-01-23T03:45:17.148Z,90.89
2019-01-23T03:47:45.938Z,90.93
2019-01-23T03:50:16.737Z,90.96
2019-01-23T03:52:46.377Z,90.98
2019-01-23T03:55:18.489Z,90.92
2019-01-23T03:57:47.383Z,91.00
2019-01-23T04:00:21.934Z,90.98
2019-01-23T04:02:53.591Z,91.06
2019-01-23T04:05:22.402Z,91.11
2019-01-23T04:07:51.587Z,91.11
2019-01-23T04:10:22.248Z,91.16
2019-01-23T04:12:51.756Z,91.16
2019-01-23T04:15:20.654Z,91.17
2019-01-23T04:17:49.847Z,91.11
2019-01-23T04:20:20.573Z,91.10
2019-01-23T04:22:49.351Z,91.03
2019-01-23T04:25:19.184Z,90.96
2019-01-23T04:27:47.943Z,90.82
2019-01-23T04:30:23.707Z,90.77
2019-01-23T04:32:52.491Z,90.73
2019-01-23T04:35:22.303Z,90.61
2019-01-23T04:37:51.110Z,90.57
2019-01-23T04:40:20.712Z,90.57
2019-01-23T04:42:50.270Z,90.56
2019-01-23T04:45:20.141Z,90.47
2019-01-23T04:47:49.124Z,90.47
2019-01-23T04:50:18.767Z,90.43
2019-01-23T04:53:01.569Z,90.41
2019-01-23T04:55:30.583Z,90.34
2019-01-23T04:57:59.357Z,90.08
2019-01-23T05:00:29.910Z,89.90
2019-01-23T05:02:58.748Z,89.91
2019-01-23T05:05:28.614Z,89.84
2019-01-23T05:07:58.390Z,89.63
2019-01-23T05:10:28.052Z,89.56
2019-01-23T05:12:57.636Z,89.65
2019-01-23T05:15:26.403Z,89.66
2019-01-23T05:17:55.180Z,89.68
2019-01-23T05:20:23.951Z,89.60
2019-01-23T05:22:52.748Z,89.57
2019-01-23T05:25:21.597Z,89.47
2019-01-23T05:27:50.374Z,89.42
2019-01-23T05:30:21.596Z,89.40
2019-01-23T05:32:50.432Z,89.35
2019-01-23T05:35:19.320Z,89.24
2019-01-23T05:37:48.565Z,89.17
2019-01-23T05:40:17.546Z,89.21
2019-01-23T05:42:46.314Z,89.26
2019-01-23T05:45:15.584Z,89.30
2019-01-23T05:47:44.358Z,89.22
2019-01-23T05:50:15.766Z,89.15
2019-01-23T05:52:44.670Z,89.10
2019-01-23T05:55:14.115Z,89.08
2019-01-23T05:57:42.917Z,89.04
2019-01-23T06:00:15.197Z,88.98
2019-01-23T06:02:43.949Z,89.01
2019-01-23T06:05:14.431Z,89.05
2019-01-23T06:07:43.289Z,89.03
2019-01-23T06:10:12.231Z,88.99
2019-01-23T06:12:41.063Z,89.00
2019-01-23T06:15:14.589Z,88.96
2019-01-23T06:17:43.476Z,89.06
2019-01-23T06:20:15.669Z,89.10
2019-01-23T06:22:44.781Z,89.18
2019-01-23T06:25:14.084Z,89.18
2019-01-23T06:27:42.911Z,89.12
2019-01-23T06:30:14.898Z,89.10
2019-01-23T06:32:43.791Z,89.14
2019-01-23T06:35:12.781Z,89.13
2019-01-23T06:37:41.746Z,89.17
2019-01-23T06:40:12.459Z,89.17
2019-01-23T06:42:41.252Z,89.14
2019-01-23T06:45:17.343Z,89.12
2019-01-23T06:47:47.927Z,89.10
2019-01-23T06:50:20.116Z,89.08
2019-01-23T06:52:49.909Z,89.10
2019-01-23T06:55:19.930Z,89.13
2019-01-23T06:57:49.587Z,89.15
2019-01-23T07:00:24.527Z,89.20
2019-01-23T07:02:54.248Z,89.24
2019-01-23T07:05:25.713Z,89.21
2019-01-23T07:07:55.321Z,89.21
2019-01-23T07:10:26.414Z,89.19
2019-01-23T07:12:56.079Z,89.10
2019-01-23T07:15:25.760Z,89.10
2019-01-23T07:17:55.369Z,89.08
2019-01-23T07:20:26.384Z,89.05
2019-01-23T07:22:56.114Z,88.94
2019-01-23T07:25:26.172Z,88.96
2019-01-23T07:27:55.744Z,88.92
2019-01-23T07:30:32.855Z,88.91
2019-01-23T07:33:02.437Z,88.82
2019-01-23T07:35:32.100Z,88.79
2019-01-23T07:38:01.777Z,88.70
2019-01-23T07:40:31.370Z,88.73
2019-01-23T07:43:00.944Z,88.69
2019-01-23T07:45:30.718Z,88.69
2019-01-23T07:48:00.296Z,88.72
2019-01-23T07:50:29.871Z,88.73
2019-01-23T07:52:59.749Z,88.69
2019-01-23T07:55:29.408Z,88.72
2019-01-23T07:57:58.965Z,88.66
2019-01-23T08:00:31.605Z,88.61
2019-01-23T08:03:00.990Z,88.60
2019-01-23T08:05:30.588Z,88.58
2019-01-23T08:08:00.172Z,88.62
2019-01-23T08:10:29.796Z,88.62
2019-01-23T08:12:59.444Z,88.53
2019-01-23T08:15:32.892Z,88.40
2019-01-23T08:18:02.581Z,88.47
2019-01-23T08:20:32.214Z,88.42
2019-01-23T08:23:02.335Z,88.33
2019-01-23T08:25:32.024Z,88.25
2019-01-23T08:28:01.655Z,88.13
2019-01-23T08:30:38.337Z,88.20
2019-01-23T08:33:02.694Z,88.27
2019-01-23T08:35:32.243Z,88.18
2019-01-23T08:38:02.203Z,88.04
2019-01-23T08:40:31.746Z,88.11
2019-01-23T08:43:01.435Z,88.12
2019-01-23T08:45:31.437Z,88.15
2019-01-23T08:48:01.320Z,88.16
2019-01-23T08:50:40.153Z,88.16
2019-01-23T08:53:09.766Z,88.11
2019-01-23T08:55:39.323Z,88.04
2019-01-23T08:58:09.265Z,88.05
2019-01-23T09:00:45.593Z,87.97
2019-01-23T09:03:10.263Z,87.90
2019-01-23T09:05:39.852Z,87.84
2019-01-23T09:08:09.674Z,87.70
2019-01-23T09:10:39.362Z,87.34
2019-01-23T09:13:08.962Z,87.00
2019-01-23T09:15:38.513Z,86.77
2019-01-23T09:18:08.684Z,86.51
2019-01-23T09:20:38.336Z,86.26
2019-01-23T09:23:07.967Z,86.15
2019-01-23T09:25:37.526Z,86.06
2019-01-23T09:28:07.314Z,86.06
2019-01-23T09:30:52.621Z,85.86
2019-01-23T09:33:29.720Z,85.66
2019-01-23T09:36:21.611Z,85.57
2019-01-23T09:39:01.537Z,85.26
2019-01-23T09:41:47.861Z,84.83
2019-01-23T09:45:02.994Z,84.67
2019-01-23T09:47:58.371Z,84.82
2019-01-23T09:50:50.249Z,84.99
2019-01-23T09:53:27.227Z,85.28
2019-01-23T09:55:57.162Z,85.46
2019-01-23T09:58:26.728Z,85.08
2019-01-23T10:00:59.895Z,84.07
2019-01-23T10:03:27.890Z,83.06
2019-01-23T10:05:57.519Z,82.25
2019-01-23T10:08:27.090Z,81.82
2019-01-23T10:10:56.769Z,81.86
2019-01-23T10:13:26.312Z,82.31
2019-01-23T10:15:56.474Z,82.55
2019-01-23T10:18:26.170Z,82.82
2019-01-23T10:20:55.722Z,82.76
2019-01-23T10:23:25.268Z,82.25
2019-01-23T10:25:54.842Z,82.09
2019-01-23T10:28:24.395Z,81.55
2019-01-23T10:30:53.942Z,81.44
2019-01-23T10:33:23.695Z,81.29
2019-01-23T10:35:53.244Z,80.91
2019-01-23T10:38:22.793Z,80.44
2019-01-23T10:40:52.510Z,80.50
2019-01-23T10:43:22.060Z,80.69
2019-01-23T10:45:51.687Z,80.96
2019-01-23T10:48:21.340Z,81.08
2019-01-23T10:50:50.886Z,81.24
2019-01-23T10:53:20.441Z,81.13
2019-01-23T10:55:50.156Z,80.97
2019-01-23T10:58:19.885Z,81.00
2019-01-23T11:00:49.431Z,81.01
2019-01-23T11:03:19.084Z,80.88
2019-01-23T11:05:48.645Z,80.78
2019-01-23T11:08:18.198Z,80.47
2019-01-23T11:10:47.776Z,80.21
2019-01-23T11:13:17.324Z,80.02
2019-01-23T11:15:46.871Z,79.87
2019-01-23T11:18:16.480Z,79.50
2019-01-23T11:20:46.020Z,79.29
2019-01-23T11:23:15.588Z,79.09
2019-01-23T11:25:45.226Z,79.02
2019-01-23T11:28:14.809Z,79.13
2019-01-23T11:30:44.412Z,79.44
2019-01-23T11:33:14.325Z,79.71
2019-01-23T11:35:43.875Z,79.85
2019-01-23T11:38:13.503Z,79.93
2019-01-23T11:40:43.291Z,80.03
2019-01-23T11:43:12.838Z,79.86
2019-01-23T11:45:42.479Z,79.81
2019-01-23T11:48:12.026Z,79.86
2019-01-23T11:50:41.587Z,80.00
2019-01-23T11:53:12.017Z,79.78
2019-01-23T11:55:43.250Z,79.76
2019-01-23T11:58:13.215Z,79.72
2019-01-23T12:00:42.912Z,79.61
2019-01-23T12:03:12.467Z,79.48
2019-01-23T12:05:42.176Z,79.49
2019-01-23T12:08:11.726Z,79.54
2019-01-23T12:10:41.304Z,79.54
2019-01-23T12:13:10.994Z,79.44
2019-01-23T12:15:41.122Z,79.33
2019-01-23T12:18:10.930Z,79.32
2019-01-23T12:20:40.471Z,79.24
2019-01-23T12:23:10.224Z,79.20
2019-01-23T12:25:39.767Z,79.24
2019-01-23T12:28:09.315Z,79.26
2019-01-23T12:30:38.957Z,79.25
2019-01-23T12:33:08.513Z,79.28
2019-01-23T12:35:38.082Z,79.30
2019-01-23T12:38:07.626Z,79.34
2019-01-23T12:40:37.182Z,79.35
2019-01-23T12:43:06.824Z,79.38
2019-01-23T12:45:36.442Z,79.26
2019-01-23T12:48:06.146Z,79.46
2019-01-23T12:50:35.895Z,79.61
2019-01-23T12:53:05.701Z,79.79
2019-01-23T12:55:35.252Z,79.70
2019-01-23T12:58:07.874Z,79.64
2019-01-23T13:00:37.780Z,79.55
2019-01-23T13:03:07.406Z,79.67
2019-01-23T13:05:37.041Z,79.88
2019-01-23T13:08:06.741Z,80.01
2019-01-23T13:10:36.309Z,80.18
2019-01-23T13:13:07.196Z,80.26
2019-01-23T13:15:36.804Z,80.31
2019-01-23T13:18:06.446Z,80.31
2019-01-23T13:20:36.019Z,80.24
2019-01-23T13:23:05.833Z,80.24
2019-01-23T13:25:35.382Z,80.21
2019-01-23T13:28:05.479Z,80.21
2019-01-23T13:30:35.021Z,80.22
2019-01-23T13:33:04.750Z,80.12
2019-01-23T13:35:37.734Z,80.07
2019-01-23T13:38:11.567Z,80.00
2019-01-23T13:40:41.551Z,80.04
2019-01-23T13:43:11.113Z,79.99
2019-01-23T13:45:41.791Z,79.96
2019-01-23T13:48:11.843Z,79.77
2019-01-23T13:50:41.381Z,79.90
2019-01-23T13:53:11.050Z,79.99
2019-01-23T13:55:40.675Z,79.87
2019-01-23T13:58:10.390Z,79.92
2019-01-23T14:00:42.048Z,80.07
2019-01-23T14:03:11.664Z,80.28
2019-01-23T14:05:41.269Z,80.51
2019-01-23T14:08:11.288Z,80.69
2019-01-23T14:10:40.899Z,80.79
2019-01-23T14:13:10.786Z,80.93
2019-01-23T14:15:41.424Z,80.96
2019-01-23T14:18:11.078Z,80.97
2019-01-23T14:20:40.641Z,80.98
2019-01-23T14:23:10.213Z,80.91
2019-01-23T14:25:39.804Z,80.89
2019-01-23T14:28:09.619Z,80.82
2019-01-23T14:30:42.421Z,80.75
2019-01-23T14:33:12.158Z,80.72
2019-01-23T14:35:41.854Z,80.72
2019-01-23T14:38:11.667Z,80.76
2019-01-23T14:40:41.253Z,80.87
2019-01-23T14:43:10.846Z,80.99
2019-01-23T14:45:40.685Z,81.08
2019-01-23T14:48:10.260Z,81.14
2019-01-23T14:50:39.920Z,81.20
2019-01-23T14:53:09.613Z,81.20
2019-01-23T14:55:39.225Z,81.30
2019-01-23T14:58:08.873Z,81.30
2019-01-23T15:00:38.791Z,81.42
2019-01-23T15:03:08.447Z,81.42
2019-01-23T15:05:37.990Z,81.42
2019-01-23T15:08:09.043Z,81.61
2019-01-23T15:10:38.590Z,81.68
2019-01-23T15:13:08.423Z,81.75
2019-01-23T15:15:38.108Z,81.88
2019-01-23T15:18:07.922Z,81.95
2019-01-23T15:20:39.297Z,82.04
2019-01-23T15:23:08.874Z,82.09
2019-01-23T15:25:38.513Z,82.18
2019-01-23T15:28:08.324Z,82.24
2019-01-23T15:30:37.977Z,82.27
2019-01-23T15:33:07.757Z,82.27
2019-01-23T15:35:37.264Z,82.34
2019-01-23T15:38:06.931Z,82.32
2019-01-23T15:40:36.881Z,82.32
2019-01-23T15:43:06.649Z,82.32
2019-01-23T15:45:36.226Z,82.29
2019-01-23T15:48:06.106Z,82.31
2019-01-23T15:50:35.723Z,82.24
2019-01-23T15:53:05.413Z,82.29
2019-01-23T15:55:35.065Z,82.25
2019-01-23T15:58:04.951Z,82.31
2019-01-23T16:00:34.721Z,82.33
2019-01-23T16:03:04.771Z,82.33
2019-01-23T16:05:34.373Z,82.36
2019-01-23T16:08:03.923Z,82.33
2019-01-23T16:10:33.482Z,82.32
2019-01-23T16:13:03.175Z,82.29
2019-01-23T16:15:33.913Z,82.36
2019-01-23T16:18:03.667Z,82.35
2019-01-23T16:20:33.352Z,82.27
2019-01-23T16:23:03.175Z,82.12
2019-01-23T16:25:32.773Z,82.05
2019-01-23T16:28:02.322Z,82.11
2019-01-23T16:30:38.808Z,82.12
2019-01-23T16:33:08.439Z,82.14
2019-01-23T16:35:38.640Z,82.13
2019-01-23T16:38:09.150Z,82.18
2019-01-23T16:40:38.724Z,82.15
2019-01-23T16:43:08.367Z,82.23
2019-01-23T16:45:37.995Z,82.23
2019-01-23T16:48:07.647Z,82.16
2019-01-23T16:50:37.262Z,82.11
2019-01-23T16:53:07.085Z,82.11
2019-01-23T16:55:36.800Z,82.14
2019-01-23T16:58:07.452Z,82.15
2019-01-23T17:00:37.430Z,82.06
2019-01-23T17:03:07.485Z,81.99
2019-01-23T17:05:37.275Z,81.95
2019-01-23T17:08:07.684Z,81.97
2019-01-23T17:10:37.303Z,81.90
2019-01-23T17:13:07.368Z,81.90
2019-01-23T17:15:36.962Z,81.92
2019-01-23T17:18:06.930Z,81.84
2019-01-23T17:20:43.222Z,81.77
2019-01-23T17:23:12.924Z,81.79
2019-01-23T17:25:42.556Z,81.72
2019-01-23T17:28:14.181Z,81.70
2019-01-23T17:30:43.825Z,81.72
2019-01-23T17:33:13.520Z,81.73
2019-01-23T17:35:43.211Z,81.62
2019-01-23T17:38:12.925Z,81.69
2019-01-23T17:40:42.569Z,81.71
2019-01-23T17:43:13.482Z,81.73
2019-01-23T17:45:43.190Z,81.72
2019-01-23T17:48:14.622Z,81.68
2019-01-23T17:50:44.254Z,81.71
2019-01-23T17:53:13.789Z,81.75
2019-01-23T17:55:43.359Z,81.73
2019-01-23T17:58:13.180Z,81.75
2019-01-23T18:00:44.668Z,81.69
2019-01-23T18:03:14.211Z,81.59
2019-01-23T18:05:43.845Z,81.46
2019-01-23T18:08:13.388Z,81.43
2019-01-23T18:10:42.941Z,81.43
2019-01-23T18:13:12.602Z,81.48
2019-01-23T18:15:42.987Z,81.54
2019-01-23T18:18:13.809Z,81.59
2019-01-23T18:20:43.346Z,81.55
2019-01-23T18:23:12.919Z,81.50
2019-01-23T18:25:42.609Z,81.54
2019-01-23T18:28:12.169Z,81.46
2019-01-23T18:30:55.541Z,81.47
2019-01-23T18:33:32.610Z,81.50
2019-01-23T18:36:09.512Z,81.46
2019-01-23T18:38:46.717Z,81.40
2019-01-23T18:41:47.801Z,81.42
2019-01-23T18:44:33.937Z,81.46
2019-01-23T18:47:30.431Z,81.42
2019-01-23T18:50:30.154Z,81.46
2019-01-23T18:52:59.736Z,81.48
2019-01-23T18:55:29.290Z,81.35
2019-01-23T18:57:58.833Z,81.39
2019-01-23T19:00:28.652Z,81.43
2019-01-23T19:02:58.286Z,81.50
2019-01-23T19:05:28.576Z,81.44
2019-01-23T19:07:58.127Z,81.38
2019-01-23T19:10:27.697Z,81.31
2019-01-23T19:12:57.266Z,81.37
2019-01-23T19:15:26.883Z,81.33
2019-01-23T19:17:56.460Z,81.30
2019-01-23T19:20:26.073Z,81.27
2019-01-23T19:22:55.620Z,81.28
2019-01-23T19:25:25.270Z,81.26
2019-01-23T19:27:54.828Z,81.12
2019-01-23T19:30:24.738Z,80.97
2019-01-23T19:32:54.311Z,80.88
2019-01-23T19:35:23.893Z,80.90
2019-01-23T19:37:53.486Z,80.89
2019-01-23T19:40:23.101Z,80.92
2019-01-23T19:42:52.654Z,80.66
2019-01-23T19:45:22.862Z,80.66
2019-01-23T19:47:52.469Z,80.49
2019-01-23T19:50:22.160Z,80.44
2019-01-23T19:52:51.716Z,80.41
2019-01-23T19:55:21.406Z,80.49
2019-01-23T19:57:51.846Z,80.62
2019-01-23T20:00:22.806Z,80.52
2019-01-23T20:02:52.399Z,80.50
2019-01-23T20:05:25.262Z,80.51
2019-01-23T20:07:55.067Z,80.49
2019-01-23T20:10:25.883Z,80.39
2019-01-23T20:12:55.574Z,80.43
2019-01-23T20:15:25.291Z,80.47
2019-01-23T20:17:56.655Z,80.44
2019-01-23T20:20:26.217Z,80.50
2019-01-23T20:22:55.793Z,80.44
2019-01-23T20:25:26.895Z,80.33
2019-01-23T20:27:56.836Z,80.33
2019-01-23T20:30:33.803Z,80.26
2019-01-23T20:33:03.550Z,80.29
2019-01-23T20:35:33.108Z,80.36
2019-01-23T20:38:02.650Z,80.25
2019-01-23T20:40:32.223Z,80.24
2019-01-23T20:43:01.768Z,80.26
2019-01-23T20:45:31.372Z,80.28
2019-01-23T20:48:00.920Z,80.31
2019-01-23T20:50:31.814Z,80.24
2019-01-23T20:53:01.529Z,80.23
2019-01-23T20:55:31.079Z,80.13
2019-01-23T20:58:00.730Z,79.92
2019-01-23T21:00:33.360Z,79.90
2019-01-23T21:03:02.911Z,79.95
2019-01-23T21:05:32.480Z,79.94
2019-01-23T21:08:02.021Z,79.91
2019-01-23T21:10:31.593Z,79.96
2019-01-23T21:13:01.146Z,79.91
2019-01-23T21:15:31.848Z,79.88
2019-01-23T21:18:01.557Z,79.97
2019-01-23T21:20:31.850Z,79.84
2019-01-23T21:23:01.509Z,79.84
2019-01-23T21:25:31.054Z,79.84
2019-01-23T21:28:00.602Z,79.89
2019-01-23T21:30:30.175Z,79.93
2019-01-23T21:32:59.716Z,79.90
2019-01-23T21:35:29.292Z,79.83
2019-01-23T21:37:58.900Z,79.69
2019-01-23T21:40:31.261Z,79.43
2019-01-23T21:43:02.720Z,79.25
2019-01-23T21:45:32.637Z,79.14
2019-01-23T21:48:02.281Z,79.01
2019-01-23T21:50:31.834Z,78.83
2019-01-23T21:53:01.482Z,78.60
2019-01-23T21:55:31.123Z,78.52
2019-01-23T21:58:00.669Z,78.58
2019-01-23T22:00:37.324Z,78.63
2019-01-23T22:03:09.788Z,78.66
2019-01-23T22:05:39.502Z,78.50
2019-01-23T22:08:10.317Z,78.61
2019-01-23T22:10:39.894Z,78.48
2019-01-23T22:13:09.441Z,78.28
2019-01-23T22:15:38.992Z,78.29
2019-01-23T22:18:09.103Z,78.32
2019-01-23T22:20:38.746Z,78.25
2019-01-23T22:23:08.719Z,78.23
2019-01-23T22:25:38.261Z,78.22
2019-01-23T22:28:07.948Z,78.16
2019-01-23T22:30:37.538Z,78.18
2019-01-23T22:33:07.219Z,78.07
2019-01-23T22:35:36.795Z,78.03
2019-01-23T22:38:06.788Z,77.85
2019-01-23T22:40:36.366Z,77.66
2019-01-23T22:43:06.091Z,77.37
2019-01-23T22:45:35.632Z,77.25
2019-01-23T22:48:06.238Z,77.19
2019-01-23T22:50:35.790Z,77.26
2019-01-23T22:53:05.932Z,77.35
2019-01-23T22:55:35.478Z,77.35
2019-01-23T22:58:05.606Z,77.19
2019-01-23T23:00:42.901Z,77.16
2019-01-23T23:03:14.882Z,77.12
2019-01-23T23:05:44.506Z,77.03
2019-01-23T23:08:14.395Z,77.04
2019-01-23T23:10:44.041Z,77.10
2019-01-23T23:13:13.670Z,76.98
2019-01-23T23:15:43.316Z,76.95
2019-01-23T23:18:12.975Z,76.94
2019-01-23T23:20:42.521Z,77.00
2019-01-23T23:23:12.141Z,76.95
2019-01-23T23:25:41.934Z,76.87
2019-01-23T23:28:11.568Z,76.91
2019-01-23T23:30:41.128Z,76.70
2019-01-23T23:33:10.703Z,76.63
2019-01-23T23:35:40.253Z,76.61
2019-01-23T23:38:10.299Z,76.37
2019-01-23T23:40:39.846Z,76.45
2019-01-23T23:43:09.395Z,76.47
2019-01-23T23:45:39.037Z,76.44
2019-01-23T23:48:08.656Z,76.36
2019-01-23T23:50:38.228Z,76.33
2019-01-23T23:53:07.782Z,76.29
2019-01-23T23:55:37.460Z,76.13
2019-01-23T23:58:07.028Z,76.00
